sensor_id;sensor_type;location;lat;lon;timestamp;temperature;humidity
8565;DHT22;4320;51.498;6.556;2023-03-03T00:00:36;3.80;11.20
8565;DHT22;4320;51.498;6.556;2023-03-03T00:03:05;3.80;12.30
8565;DHT22;4320;51.498;6.556;2023-03-03T00:05:31;3.70;13.20
8565;DHT22;4320;51.498;6.556;2023-03-03T00:07:58;3.80;14.70
8565;DHT22;4320;51.498;6.556;2023-03-03T00:10:24;3.80;14.00
8565;DHT22;4320;51.498;6.556;2023-03-03T00:12:50;3.80;12.90
8565;DHT22;4320;51.498;6.556;2023-03-03T00:15:24;3.80;14.30
8565;DHT22;4320;51.498;6.556;2023-03-03T00:17:50;3.80;15.50
8565;DHT22;4320;51.498;6.556;2023-03-03T00:20:37;3.80;15.20
8565;DHT22;4320;51.498;6.556;2023-03-03T00:23:13;3.90;14.80
8565;DHT22;4320;51.498;6.556;2023-03-03T00:25:45;3.80;15.30
8565;DHT22;4320;51.498;6.556;2023-03-03T00:28:28;3.80;15.40
8565;DHT22;4320;51.498;6.556;2023-03-03T00:30:56;3.80;15.80
8565;DHT22;4320;51.498;6.556;2023-03-03T00:36:06;3.80;18.70
8565;DHT22;4320;51.498;6.556;2023-03-03T00:38:35;3.80;17.80
8565;DHT22;4320;51.498;6.556;2023-03-03T00:41:09;3.90;18.60
8565;DHT22;4320;51.498;6.556;2023-03-03T00:43:38;4.00;18.10
8565;DHT22;4320;51.498;6.556;2023-03-03T00:46:07;4.00;14.80
8565;DHT22;4320;51.498;6.556;2023-03-03T00:51:29;4.00;12.50
8565;DHT22;4320;51.498;6.556;2023-03-03T00:53:56;3.90;11.40
8565;DHT22;4320;51.498;6.556;2023-03-03T00:56:22;3.90;11.60
8565;DHT22;4320;51.498;6.556;2023-03-03T00:58:48;4.00;11.30
8565;DHT22;4320;51.498;6.556;2023-03-03T01:01:15;4.00;11.10
8565;DHT22;4320;51.498;6.556;2023-03-03T01:03:41;4.00;12.70
8565;DHT22;4320;51.498;6.556;2023-03-03T01:06:07;4.00;10.30
8565;DHT22;4320;51.498;6.556;2023-03-03T01:08:32;4.10;10.60
8565;DHT22;4320;51.498;6.556;2023-03-03T01:11:13;4.00;7.30
8565;DHT22;4320;51.498;6.556;2023-03-03T01:13:42;4.00;8.10
8565;DHT22;4320;51.498;6.556;2023-03-03T01:16:09;3.90;8.50
8565;DHT22;4320;51.498;6.556;2023-03-03T01:18:35;3.90;9.70
8565;DHT22;4320;51.498;6.556;2023-03-03T01:21:01;4.00;9.10
8565;DHT22;4320;51.498;6.556;2023-03-03T01:23:27;3.90;5.70
8565;DHT22;4320;51.498;6.556;2023-03-03T01:25:53;3.90;6.40
8565;DHT22;4320;51.498;6.556;2023-03-03T01:28:19;3.90;5.10
8565;DHT22;4320;51.498;6.556;2023-03-03T01:30:45;3.70;4.50
8565;DHT22;4320;51.498;6.556;2023-03-03T01:33:10;3.70;7.20
8565;DHT22;4320;51.498;6.556;2023-03-03T01:35:36;3.80;8.40
8565;DHT22;4320;51.498;6.556;2023-03-03T01:38:02;3.80;9.90
8565;DHT22;4320;51.498;6.556;2023-03-03T01:40:30;3.80;10.20
8565;DHT22;4320;51.498;6.556;2023-03-03T01:42:57;3.90;12.50
8565;DHT22;4320;51.498;6.556;2023-03-03T01:45:26;3.90;13.50
8565;DHT22;4320;51.498;6.556;2023-03-03T01:48:05;3.90;11.20
8565;DHT22;4320;51.498;6.556;2023-03-03T01:50:52;3.90;14.20
8565;DHT22;4320;51.498;6.556;2023-03-03T01:53:32;3.90;15.20
8565;DHT22;4320;51.498;6.556;2023-03-03T01:56:00;3.90;12.20
8565;DHT22;4320;51.498;6.556;2023-03-03T01:58:29;3.90;13.30
8565;DHT22;4320;51.498;6.556;2023-03-03T02:01:04;3.90;12.90
8565;DHT22;4320;51.498;6.556;2023-03-03T02:03:31;3.90;13.90
8565;DHT22;4320;51.498;6.556;2023-03-03T02:06:02;3.90;13.20
8565;DHT22;4320;51.498;6.556;2023-03-03T02:08:41;3.80;13.90
8565;DHT22;4320;51.498;6.556;2023-03-03T02:11:10;3.90;14.70
8565;DHT22;4320;51.498;6.556;2023-03-03T02:13:36;3.90;15.40
8565;DHT22;4320;51.498;6.556;2023-03-03T02:16:02;3.80;14.00
8565;DHT22;4320;51.498;6.556;2023-03-03T02:18:28;3.80;15.30
8565;DHT22;4320;51.498;6.556;2023-03-03T02:26:38;3.80;18.00
8565;DHT22;4320;51.498;6.556;2023-03-03T02:29:05;3.80;16.40
8565;DHT22;4320;51.498;6.556;2023-03-03T02:31:32;3.80;16.60
8565;DHT22;4320;51.498;6.556;2023-03-03T02:33:58;3.80;16.70
8565;DHT22;4320;51.498;6.556;2023-03-03T02:36:28;3.70;15.00
8565;DHT22;4320;51.498;6.556;2023-03-03T02:39:13;3.80;14.90
8565;DHT22;4320;51.498;6.556;2023-03-03T02:42:01;3.80;14.60
8565;DHT22;4320;51.498;6.556;2023-03-03T02:44:30;3.70;14.00
8565;DHT22;4320;51.498;6.556;2023-03-03T02:46:56;3.60;13.10
8565;DHT22;4320;51.498;6.556;2023-03-03T02:49:27;3.60;14.80
8565;DHT22;4320;51.498;6.556;2023-03-03T02:51:54;3.70;14.90
8565;DHT22;4320;51.498;6.556;2023-03-03T02:54:22;3.70;15.20
8565;DHT22;4320;51.498;6.556;2023-03-03T02:56:48;3.70;14.40
8565;DHT22;4320;51.498;6.556;2023-03-03T02:59:15;3.70;14.20
8565;DHT22;4320;51.498;6.556;2023-03-03T03:01:41;3.70;14.10
8565;DHT22;4320;51.498;6.556;2023-03-03T03:04:19;3.70;14.90
8565;DHT22;4320;51.498;6.556;2023-03-03T03:06:45;3.70;13.00
8565;DHT22;4320;51.498;6.556;2023-03-03T03:09:12;3.70;13.30
8565;DHT22;4320;51.498;6.556;2023-03-03T03:11:38;3.60;13.70
8565;DHT22;4320;51.498;6.556;2023-03-03T03:14:05;3.60;13.10
8565;DHT22;4320;51.498;6.556;2023-03-03T03:16:31;3.50;13.20
8565;DHT22;4320;51.498;6.556;2023-03-03T03:18:59;3.50;13.20
8565;DHT22;4320;51.498;6.556;2023-03-03T03:21:24;3.40;14.70
8565;DHT22;4320;51.498;6.556;2023-03-03T03:23:50;3.40;18.20
8565;DHT22;4320;51.498;6.556;2023-03-03T03:26:16;3.40;22.40
8565;DHT22;4320;51.498;6.556;2023-03-03T03:28:42;3.60;24.60
8565;DHT22;4320;51.498;6.556;2023-03-03T03:31:08;3.60;21.10
8565;DHT22;4320;51.498;6.556;2023-03-03T03:33:35;3.60;23.00
8565;DHT22;4320;51.498;6.556;2023-03-03T03:36:01;3.60;19.00
8565;DHT22;4320;51.498;6.556;2023-03-03T03:38:27;3.50;20.30
8565;DHT22;4320;51.498;6.556;2023-03-03T03:40:54;3.50;25.10
8565;DHT22;4320;51.498;6.556;2023-03-03T03:43:20;3.50;20.60
8565;DHT22;4320;51.498;6.556;2023-03-03T03:45:46;3.40;18.30
8565;DHT22;4320;51.498;6.556;2023-03-03T03:48:12;3.40;18.60
8565;DHT22;4320;51.498;6.556;2023-03-03T03:50:38;3.40;21.50
8565;DHT22;4320;51.498;6.556;2023-03-03T03:53:05;3.30;24.00
8565;DHT22;4320;51.498;6.556;2023-03-03T03:55:31;3.40;21.60
8565;DHT22;4320;51.498;6.556;2023-03-03T03:57:57;3.30;22.50
8565;DHT22;4320;51.498;6.556;2023-03-03T04:00:23;3.30;21.90
8565;DHT22;4320;51.498;6.556;2023-03-03T04:02:49;3.30;21.20
8565;DHT22;4320;51.498;6.556;2023-03-03T04:05:16;3.30;21.90
8565;DHT22;4320;51.498;6.556;2023-03-03T04:07:41;3.30;23.00
8565;DHT22;4320;51.498;6.556;2023-03-03T04:10:08;3.20;20.80
8565;DHT22;4320;51.498;6.556;2023-03-03T04:12:33;3.10;23.70
8565;DHT22;4320;51.498;6.556;2023-03-03T04:15:07;3.20;27.00
8565;DHT22;4320;51.498;6.556;2023-03-03T04:17:34;3.10;28.60
8565;DHT22;4320;51.498;6.556;2023-03-03T04:19:59;3.20;30.30
8565;DHT22;4320;51.498;6.556;2023-03-03T04:22:27;3.20;29.50
8565;DHT22;4320;51.498;6.556;2023-03-03T04:24:52;3.30;33.70
8565;DHT22;4320;51.498;6.556;2023-03-03T04:27:18;3.30;31.60
8565;DHT22;4320;51.498;6.556;2023-03-03T04:29:44;3.30;30.40
8565;DHT22;4320;51.498;6.556;2023-03-03T04:32:09;3.20;29.70
8565;DHT22;4320;51.498;6.556;2023-03-03T04:34:35;3.20;30.80
8565;DHT22;4320;51.498;6.556;2023-03-03T04:37:00;3.20;33.50
8565;DHT22;4320;51.498;6.556;2023-03-03T04:39:27;3.20;32.40
8565;DHT22;4320;51.498;6.556;2023-03-03T04:41:53;3.20;31.80
8565;DHT22;4320;51.498;6.556;2023-03-03T04:44:19;3.10;33.00
8565;DHT22;4320;51.498;6.556;2023-03-03T04:46:44;3.20;36.00
8565;DHT22;4320;51.498;6.556;2023-03-03T04:49:10;3.20;34.40
8565;DHT22;4320;51.498;6.556;2023-03-03T04:51:35;3.20;35.50
8565;DHT22;4320;51.498;6.556;2023-03-03T04:54:01;3.30;38.00
8565;DHT22;4320;51.498;6.556;2023-03-03T04:56:28;3.30;33.50
8565;DHT22;4320;51.498;6.556;2023-03-03T04:58:54;3.30;31.60
8565;DHT22;4320;51.498;6.556;2023-03-03T05:01:20;3.20;29.20
8565;DHT22;4320;51.498;6.556;2023-03-03T05:03:45;3.00;31.60
8565;DHT22;4320;51.498;6.556;2023-03-03T05:06:11;2.90;34.90
8565;DHT22;4320;51.498;6.556;2023-03-03T05:08:37;2.90;41.70
8565;DHT22;4320;51.498;6.556;2023-03-03T05:11:03;2.90;51.30
8565;DHT22;4320;51.498;6.556;2023-03-03T05:13:29;2.90;51.40
8565;DHT22;4320;51.498;6.556;2023-03-03T05:15:56;2.90;51.70
8565;DHT22;4320;51.498;6.556;2023-03-03T05:18:26;2.90;50.40
8565;DHT22;4320;51.498;6.556;2023-03-03T05:20:52;2.80;50.20
8565;DHT22;4320;51.498;6.556;2023-03-03T05:23:18;2.80;51.90
8565;DHT22;4320;51.498;6.556;2023-03-03T05:25:46;2.80;51.50
8565;DHT22;4320;51.498;6.556;2023-03-03T05:28:12;2.80;49.90
8565;DHT22;4320;51.498;6.556;2023-03-03T05:30:38;2.90;52.70
8565;DHT22;4320;51.498;6.556;2023-03-03T05:33:05;3.00;50.90
8565;DHT22;4320;51.498;6.556;2023-03-03T05:35:31;3.10;48.30
8565;DHT22;4320;51.498;6.556;2023-03-03T05:37:56;3.10;42.80
8565;DHT22;4320;51.498;6.556;2023-03-03T05:40:23;3.10;41.30
8565;DHT22;4320;51.498;6.556;2023-03-03T05:42:49;3.20;35.90
8565;DHT22;4320;51.498;6.556;2023-03-03T05:45:16;3.20;31.70
8565;DHT22;4320;51.498;6.556;2023-03-03T05:47:48;3.20;29.80
8565;DHT22;4320;51.498;6.556;2023-03-03T05:50:14;3.20;28.00
8565;DHT22;4320;51.498;6.556;2023-03-03T05:52:41;3.30;26.20
8565;DHT22;4320;51.498;6.556;2023-03-03T05:55:07;3.30;26.10
8565;DHT22;4320;51.498;6.556;2023-03-03T05:57:33;3.40;28.30
8565;DHT22;4320;51.498;6.556;2023-03-03T06:00:00;3.40;23.60
8565;DHT22;4320;51.498;6.556;2023-03-03T06:02:26;3.40;23.60
8565;DHT22;4320;51.498;6.556;2023-03-03T06:04:52;3.40;19.30
8565;DHT22;4320;51.498;6.556;2023-03-03T06:07:17;3.30;19.50
8565;DHT22;4320;51.498;6.556;2023-03-03T06:09:43;3.30;18.00
8565;DHT22;4320;51.498;6.556;2023-03-03T06:12:08;3.40;17.40
8565;DHT22;4320;51.498;6.556;2023-03-03T06:14:34;3.40;14.80
8565;DHT22;4320;51.498;6.556;2023-03-03T06:16:59;3.40;13.80
8565;DHT22;4320;51.498;6.556;2023-03-03T06:19:25;3.50;14.90
8565;DHT22;4320;51.498;6.556;2023-03-03T06:21:51;3.50;11.80
8565;DHT22;4320;51.498;6.556;2023-03-03T06:24:17;3.50;12.00
8565;DHT22;4320;51.498;6.556;2023-03-03T06:26:42;3.50;11.40
8565;DHT22;4320;51.498;6.556;2023-03-03T06:29:08;3.60;15.50
8565;DHT22;4320;51.498;6.556;2023-03-03T06:31:33;3.60;10.30
8565;DHT22;4320;51.498;6.556;2023-03-03T06:34:00;3.60;9.80
8565;DHT22;4320;51.498;6.556;2023-03-03T06:36:25;3.50;8.60
8565;DHT22;4320;51.498;6.556;2023-03-03T06:38:51;3.60;7.20
8565;DHT22;4320;51.498;6.556;2023-03-03T06:41:17;3.50;8.60
8565;DHT22;4320;51.498;6.556;2023-03-03T06:43:42;3.50;6.60
8565;DHT22;4320;51.498;6.556;2023-03-03T06:46:08;3.50;7.90
8565;DHT22;4320;51.498;6.556;2023-03-03T06:48:33;3.50;7.90
8565;DHT22;4320;51.498;6.556;2023-03-03T06:51:01;3.40;8.10
8565;DHT22;4320;51.498;6.556;2023-03-03T06:53:27;3.40;10.70
8565;DHT22;4320;51.498;6.556;2023-03-03T06:55:57;3.50;11.50
8565;DHT22;4320;51.498;6.556;2023-03-03T06:58:23;3.60;10.90
8565;DHT22;4320;51.498;6.556;2023-03-03T07:00:59;3.60;11.20
8565;DHT22;4320;51.498;6.556;2023-03-03T07:03:31;3.70;9.90
8565;DHT22;4320;51.498;6.556;2023-03-03T07:05:57;3.70;9.30
8565;DHT22;4320;51.498;6.556;2023-03-03T07:08:24;3.80;8.80
8565;DHT22;4320;51.498;6.556;2023-03-03T07:10:51;3.80;8.40
8565;DHT22;4320;51.498;6.556;2023-03-03T07:13:25;3.80;9.70
8565;DHT22;4320;51.498;6.556;2023-03-03T07:15:53;3.70;2.10
8565;DHT22;4320;51.498;6.556;2023-03-03T07:21:12;3.60;5.40
8565;DHT22;4320;51.498;6.556;2023-03-03T07:23:39;3.70;6.80
8565;DHT22;4320;51.498;6.556;2023-03-03T07:26:17;3.70;5.80
8565;DHT22;4320;51.498;6.556;2023-03-03T07:28:52;3.80;3.70
8565;DHT22;4320;51.498;6.556;2023-03-03T07:31:39;3.80;4.10
8565;DHT22;4320;51.498;6.556;2023-03-03T07:36:57;4.00;3.50
8565;DHT22;4320;51.498;6.556;2023-03-03T07:39:40;4.00;1.00
8565;DHT22;4320;51.498;6.556;2023-03-03T07:42:26;4.00;1.30
8565;DHT22;4320;51.498;6.556;2023-03-03T07:44:57;4.00;1.00
8565;DHT22;4320;51.498;6.556;2023-03-03T07:47:30;4.00;1.00
8565;DHT22;4320;51.498;6.556;2023-03-03T07:50:00;4.00;1.00
8565;DHT22;4320;51.498;6.556;2023-03-03T07:52:40;4.00;1.00
8565;DHT22;4320;51.498;6.556;2023-03-03T07:55:37;4.00;1.00
8565;DHT22;4320;51.498;6.556;2023-03-03T08:03:15;4.00;1.00
8565;DHT22;4320;51.498;6.556;2023-03-03T08:05:43;4.00;1.00
8565;DHT22;4320;51.498;6.556;2023-03-03T08:08:35;4.00;1.00
8565;DHT22;4320;51.498;6.556;2023-03-03T08:11:06;4.10;1.00
8565;DHT22;4320;51.498;6.556;2023-03-03T08:18:45;4.00;1.00
8565;DHT22;4320;51.498;6.556;2023-03-03T08:21:19;4.00;1.00
8565;DHT22;4320;51.498;6.556;2023-03-03T08:23:45;4.10;1.00
8565;DHT22;4320;51.498;6.556;2023-03-03T08:26:11;4.10;1.00
8565;DHT22;4320;51.498;6.556;2023-03-03T08:28:41;4.10;1.00
8565;DHT22;4320;51.498;6.556;2023-03-03T08:31:07;4.20;1.00
8565;DHT22;4320;51.498;6.556;2023-03-03T08:33:32;4.30;1.00
8565;DHT22;4320;51.498;6.556;2023-03-03T08:35:58;4.40;1.00
8565;DHT22;4320;51.498;6.556;2023-03-03T08:38:25;4.50;1.00
8565;DHT22;4320;51.498;6.556;2023-03-03T08:40:51;4.50;1.00
8565;DHT22;4320;51.498;6.556;2023-03-03T08:43:17;4.40;1.00
8565;DHT22;4320;51.498;6.556;2023-03-03T08:45:47;4.30;1.00
8565;DHT22;4320;51.498;6.556;2023-03-03T08:48:14;4.40;1.00
8565;DHT22;4320;51.498;6.556;2023-03-03T08:50:40;4.40;1.00
8565;DHT22;4320;51.498;6.556;2023-03-03T08:53:06;4.40;1.00
8565;DHT22;4320;51.498;6.556;2023-03-03T08:55:32;4.40;1.00
8565;DHT22;4320;51.498;6.556;2023-03-03T08:57:58;4.40;1.00
8565;DHT22;4320;51.498;6.556;2023-03-03T09:00:23;4.40;1.00
8565;DHT22;4320;51.498;6.556;2023-03-03T09:02:50;4.40;1.00
8565;DHT22;4320;51.498;6.556;2023-03-03T09:05:17;4.40;1.00
8565;DHT22;4320;51.498;6.556;2023-03-03T09:07:44;4.40;1.00
8565;DHT22;4320;51.498;6.556;2023-03-03T09:10:12;4.50;1.00
8565;DHT22;4320;51.498;6.556;2023-03-03T09:12:43;4.60;1.00
8565;DHT22;4320;51.498;6.556;2023-03-03T09:15:27;4.70;1.00
8565;DHT22;4320;51.498;6.556;2023-03-03T09:17:57;4.60;1.00
8565;DHT22;4320;51.498;6.556;2023-03-03T09:20:38;4.50;1.00
8565;DHT22;4320;51.498;6.556;2023-03-03T09:25:52;4.70;1.00
8565;DHT22;4320;51.498;6.556;2023-03-03T09:28:24;4.70;1.00
8565;DHT22;4320;51.498;6.556;2023-03-03T09:30:51;4.70;1.00
8565;DHT22;4320;51.498;6.556;2023-03-03T09:38:45;4.80;1.00
8565;DHT22;4320;51.498;6.556;2023-03-03T09:54:37;4.90;1.00
8565;DHT22;4320;51.498;6.556;2023-03-03T10:00:06;4.90;1.00
8565;DHT22;4320;51.498;6.556;2023-03-03T10:11:34;5.30;1.00
8565;DHT22;4320;51.498;6.556;2023-03-03T10:17:21;5.10;1.00
8565;DHT22;4320;51.498;6.556;2023-03-03T10:25:20;5.20;1.00
8565;DHT22;4320;51.498;6.556;2023-03-03T10:28:02;5.30;1.00
8565;DHT22;4320;51.498;6.556;2023-03-03T10:46:51;5.50;1.00
8565;DHT22;4320;51.498;6.556;2023-03-03T10:52:21;5.60;1.00
8565;DHT22;4320;51.498;6.556;2023-03-03T10:55:04;5.60;1.00
8565;DHT22;4320;51.498;6.556;2023-03-03T10:58:00;5.60;1.00
8565;DHT22;4320;51.498;6.556;2023-03-03T11:00:40;5.60;1.00
8565;DHT22;4320;51.498;6.556;2023-03-03T11:04:04;5.50;1.00
8565;DHT22;4320;51.498;6.556;2023-03-03T11:06:17;5.50;1.00
8565;DHT22;4320;51.498;6.556;2023-03-03T11:14:30;5.50;1.00
8565;DHT22;4320;51.498;6.556;2023-03-03T11:20:05;5.80;1.00
8565;DHT22;4320;51.498;6.556;2023-03-03T11:22:59;5.90;1.00
8565;DHT22;4320;51.498;6.556;2023-03-03T11:33:39;6.10;1.00
8565;DHT22;4320;51.498;6.556;2023-03-03T11:39:23;6.10;1.00
8565;DHT22;4320;51.498;6.556;2023-03-03T11:44:33;6.30;1.00
8565;DHT22;4320;51.498;6.556;2023-03-03T11:52:56;6.50;1.00
8565;DHT22;4320;51.498;6.556;2023-03-03T11:55:35;6.60;1.00
8565;DHT22;4320;51.498;6.556;2023-03-03T11:58:19;6.80;1.00
8565;DHT22;4320;51.498;6.556;2023-03-03T12:00:53;6.90;1.00
8565;DHT22;4320;51.498;6.556;2023-03-03T12:06:16;7.10;1.00
8565;DHT22;4320;51.498;6.556;2023-03-03T12:11:53;7.30;1.00
8565;DHT22;4320;51.498;6.556;2023-03-03T12:14:53;7.40;1.00
8565;DHT22;4320;51.498;6.556;2023-03-03T12:25:59;7.70;1.00
8565;DHT22;4320;51.498;6.556;2023-03-03T12:28:31;7.70;1.00
8565;DHT22;4320;51.498;6.556;2023-03-03T12:31:08;7.70;1.00
8565;DHT22;4320;51.498;6.556;2023-03-03T12:33:50;7.60;1.00
8565;DHT22;4320;51.498;6.556;2023-03-03T12:38:52;7.60;1.00
8565;DHT22;4320;51.498;6.556;2023-03-03T12:41:22;7.60;1.00
8565;DHT22;4320;51.498;6.556;2023-03-03T12:47:33;7.70;1.00
8565;DHT22;4320;51.498;6.556;2023-03-03T12:55:36;7.70;1.00
8565;DHT22;4320;51.498;6.556;2023-03-03T13:06:32;7.80;1.00
8565;DHT22;4320;51.498;6.556;2023-03-03T13:09:02;7.90;1.00
8565;DHT22;4320;51.498;6.556;2023-03-03T13:14:58;8.20;1.00
8565;DHT22;4320;51.498;6.556;2023-03-03T13:20:01;8.80;1.00
8565;DHT22;4320;51.498;6.556;2023-03-03T13:22:37;9.20;1.00
8565;DHT22;4320;51.498;6.556;2023-03-03T13:25:21;9.30;1.00
8565;DHT22;4320;51.498;6.556;2023-03-03T13:27:52;9.40;1.00
8565;DHT22;4320;51.498;6.556;2023-03-03T13:30:23;9.40;1.00
8565;DHT22;4320;51.498;6.556;2023-03-03T13:32:59;9.40;1.00
8565;DHT22;4320;51.498;6.556;2023-03-03T13:35:41;9.60;1.00
8565;DHT22;4320;51.498;6.556;2023-03-03T13:38:12;9.60;1.00
8565;DHT22;4320;51.498;6.556;2023-03-03T13:40:48;9.80;1.00
8565;DHT22;4320;51.498;6.556;2023-03-03T13:43:23;9.80;1.00
8565;DHT22;4320;51.498;6.556;2023-03-03T13:46:13;9.90;1.00
8565;DHT22;4320;51.498;6.556;2023-03-03T13:49:03;10.00;1.00
8565;DHT22;4320;51.498;6.556;2023-03-03T14:00:24;10.00;1.00
8565;DHT22;4320;51.498;6.556;2023-03-03T14:02:58;10.00;1.00
8565;DHT22;4320;51.498;6.556;2023-03-03T14:05:44;10.00;1.00
8565;DHT22;4320;51.498;6.556;2023-03-03T14:08:19;9.80;1.00
8565;DHT22;4320;51.498;6.556;2023-03-03T14:11:06;9.70;1.00
8565;DHT22;4320;51.498;6.556;2023-03-03T14:24:55;9.60;1.00
8565;DHT22;4320;51.498;6.556;2023-03-03T14:27:26;9.60;1.00
8565;DHT22;4320;51.498;6.556;2023-03-03T14:29:57;9.40;1.00
8565;DHT22;4320;51.498;6.556;2023-03-03T14:32:24;9.10;1.00
8565;DHT22;4320;51.498;6.556;2023-03-03T14:34:58;9.00;1.00
8565;DHT22;4320;51.498;6.556;2023-03-03T14:37:28;8.80;1.00
8565;DHT22;4320;51.498;6.556;2023-03-03T14:40:21;8.80;1.00
8565;DHT22;4320;51.498;6.556;2023-03-03T14:42:54;8.80;1.00
8565;DHT22;4320;51.498;6.556;2023-03-03T14:45:39;8.90;1.00
8565;DHT22;4320;51.498;6.556;2023-03-03T14:48:15;8.90;1.00
8565;DHT22;4320;51.498;6.556;2023-03-03T14:50:52;8.90;1.00
8565;DHT22;4320;51.498;6.556;2023-03-03T14:55:46;8.80;1.00
8565;DHT22;4320;51.498;6.556;2023-03-03T14:58:34;8.80;1.00
8565;DHT22;4320;51.498;6.556;2023-03-03T15:01:35;8.80;1.00
8565;DHT22;4320;51.498;6.556;2023-03-03T15:06:42;8.90;1.00
8565;DHT22;4320;51.498;6.556;2023-03-03T15:09:42;8.90;1.00
8565;DHT22;4320;51.498;6.556;2023-03-03T15:12:34;8.80;1.00
8565;DHT22;4320;51.498;6.556;2023-03-03T15:17:37;8.90;1.00
8565;DHT22;4320;51.498;6.556;2023-03-03T15:25:32;8.70;1.00
8565;DHT22;4320;51.498;6.556;2023-03-03T15:28:24;8.60;1.00
8565;DHT22;4320;51.498;6.556;2023-03-03T15:36:43;8.50;1.00
8565;DHT22;4320;51.498;6.556;2023-03-03T15:40:08;8.50;1.00
8565;DHT22;4320;51.498;6.556;2023-03-03T15:46:02;8.40;1.00
8565;DHT22;4320;51.498;6.556;2023-03-03T15:48:18;8.30;1.00
8565;DHT22;4320;51.498;6.556;2023-03-03T16:01:54;8.20;1.00
8565;DHT22;4320;51.498;6.556;2023-03-03T16:04:26;8.20;1.00
8565;DHT22;4320;51.498;6.556;2023-03-03T16:12:46;8.20;1.00
8565;DHT22;4320;51.498;6.556;2023-03-03T16:15:27;8.20;1.00
8565;DHT22;4320;51.498;6.556;2023-03-03T16:26:08;8.10;1.00
8565;DHT22;4320;51.498;6.556;2023-03-03T16:34:27;8.10;1.00
8565;DHT22;4320;51.498;6.556;2023-03-03T16:37:03;8.10;1.00
8565;DHT22;4320;51.498;6.556;2023-03-03T16:39:59;8.00;1.00
8565;DHT22;4320;51.498;6.556;2023-03-03T16:42:29;8.00;1.00
8565;DHT22;4320;51.498;6.556;2023-03-03T16:45:19;8.00;1.00
8565;DHT22;4320;51.498;6.556;2023-03-03T16:56:05;7.80;1.00
8565;DHT22;4320;51.498;6.556;2023-03-03T17:01:39;7.70;1.00
8565;DHT22;4320;51.498;6.556;2023-03-03T17:18:00;7.40;1.00
8565;DHT22;4320;51.498;6.556;2023-03-03T17:20:48;7.50;1.00
8565;DHT22;4320;51.498;6.556;2023-03-03T17:39:32;7.20;1.00
8565;DHT22;4320;51.498;6.556;2023-03-03T18:10:21;7.30;1.00
8565;DHT22;4320;51.498;6.556;2023-03-03T18:13:54;7.40;1.00
8565;DHT22;4320;51.498;6.556;2023-03-03T18:21:53;7.50;1.00
8565;DHT22;4320;51.498;6.556;2023-03-03T18:24:38;7.40;1.00
8565;DHT22;4320;51.498;6.556;2023-03-03T18:33:09;7.40;1.00
8565;DHT22;4320;51.498;6.556;2023-03-03T18:35:46;7.40;1.00
8565;DHT22;4320;51.498;6.556;2023-03-03T18:41:04;7.40;1.00
8565;DHT22;4320;51.498;6.556;2023-03-03T18:56:45;7.60;1.00
8565;DHT22;4320;51.498;6.556;2023-03-03T19:10:41;7.70;1.00
8565;DHT22;4320;51.498;6.556;2023-03-03T19:13:39;7.70;1.00
8565;DHT22;4320;51.498;6.556;2023-03-03T19:16:28;7.70;1.00
8565;DHT22;4320;51.498;6.556;2023-03-03T19:21:27;7.80;1.00
8565;DHT22;4320;51.498;6.556;2023-03-03T19:23:56;7.80;1.00
8565;DHT22;4320;51.498;6.556;2023-03-03T19:31:46;7.80;1.00
8565;DHT22;4320;51.498;6.556;2023-03-03T19:39:42;7.60;1.00
8565;DHT22;4320;51.498;6.556;2023-03-03T19:42:35;7.60;1.00
8565;DHT22;4320;51.498;6.556;2023-03-03T19:47:44;7.70;1.00
8565;DHT22;4320;51.498;6.556;2023-03-03T19:56:09;7.70;1.00
8565;DHT22;4320;51.498;6.556;2023-03-03T19:58:49;7.70;1.00
8565;DHT22;4320;51.498;6.556;2023-03-03T20:07:03;7.70;1.00
8565;DHT22;4320;51.498;6.556;2023-03-03T20:15:19;7.70;1.00
8565;DHT22;4320;51.498;6.556;2023-03-03T20:20:31;7.70;1.00
8565;DHT22;4320;51.498;6.556;2023-03-03T20:31:31;7.70;1.00
8565;DHT22;4320;51.498;6.556;2023-03-03T20:42:12;7.50;1.00
8565;DHT22;4320;51.498;6.556;2023-03-03T20:45:08;7.50;1.00
8565;DHT22;4320;51.498;6.556;2023-03-03T20:50:27;7.50;1.00
8565;DHT22;4320;51.498;6.556;2023-03-03T20:53:31;7.50;1.00
8565;DHT22;4320;51.498;6.556;2023-03-03T20:56:05;7.50;1.00
8565;DHT22;4320;51.498;6.556;2023-03-03T20:58:36;7.50;1.00
8565;DHT22;4320;51.498;6.556;2023-03-03T21:01:05;7.50;1.00
8565;DHT22;4320;51.498;6.556;2023-03-03T21:03:37;7.50;1.00
8565;DHT22;4320;51.498;6.556;2023-03-03T21:08:54;7.40;1.00
8565;DHT22;4320;51.498;6.556;2023-03-03T21:11:22;7.40;1.00
8565;DHT22;4320;51.498;6.556;2023-03-03T21:13:50;7.40;1.00
8565;DHT22;4320;51.498;6.556;2023-03-03T21:19:09;7.30;1.00
8565;DHT22;4320;51.498;6.556;2023-03-03T21:21:37;7.30;1.00
8565;DHT22;4320;51.498;6.556;2023-03-03T21:24:04;7.30;1.00
8565;DHT22;4320;51.498;6.556;2023-03-03T21:29:25;7.40;1.00
8565;DHT22;4320;51.498;6.556;2023-03-03T21:31:56;7.30;1.00
8565;DHT22;4320;51.498;6.556;2023-03-03T21:36:57;7.40;1.00
8565;DHT22;4320;51.498;6.556;2023-03-03T21:42:00;7.30;1.00
8565;DHT22;4320;51.498;6.556;2023-03-03T21:44:39;7.30;1.00
8565;DHT22;4320;51.498;6.556;2023-03-03T21:47:08;7.30;1.00
8565;DHT22;4320;51.498;6.556;2023-03-03T21:49:35;7.30;1.00
8565;DHT22;4320;51.498;6.556;2023-03-03T21:52:04;7.30;1.00
8565;DHT22;4320;51.498;6.556;2023-03-03T21:54:29;7.30;1.00
8565;DHT22;4320;51.498;6.556;2023-03-03T21:56:55;7.30;1.00
8565;DHT22;4320;51.498;6.556;2023-03-03T21:59:21;7.40;1.00
8565;DHT22;4320;51.498;6.556;2023-03-03T22:01:47;7.30;1.00
8565;DHT22;4320;51.498;6.556;2023-03-03T22:04:12;7.30;1.00
8565;DHT22;4320;51.498;6.556;2023-03-03T22:06:38;7.30;1.00
8565;DHT22;4320;51.498;6.556;2023-03-03T22:09:04;7.30;1.00
8565;DHT22;4320;51.498;6.556;2023-03-03T22:11:30;7.30;1.00
8565;DHT22;4320;51.498;6.556;2023-03-03T22:13:55;7.30;1.00
8565;DHT22;4320;51.498;6.556;2023-03-03T22:16:21;7.30;1.00
8565;DHT22;4320;51.498;6.556;2023-03-03T22:18:47;7.30;1.00
8565;DHT22;4320;51.498;6.556;2023-03-03T22:21:13;7.30;1.00
8565;DHT22;4320;51.498;6.556;2023-03-03T22:23:38;7.30;1.00
8565;DHT22;4320;51.498;6.556;2023-03-03T22:26:04;7.30;1.00
8565;DHT22;4320;51.498;6.556;2023-03-03T22:28:30;7.30;1.00
8565;DHT22;4320;51.498;6.556;2023-03-03T22:30:55;7.30;1.00
8565;DHT22;4320;51.498;6.556;2023-03-03T22:33:21;7.30;1.00
8565;DHT22;4320;51.498;6.556;2023-03-03T22:35:47;7.30;1.00
8565;DHT22;4320;51.498;6.556;2023-03-03T22:38:14;7.30;1.00
8565;DHT22;4320;51.498;6.556;2023-03-03T22:40:40;7.30;1.00
8565;DHT22;4320;51.498;6.556;2023-03-03T22:43:06;7.30;1.00
8565;DHT22;4320;51.498;6.556;2023-03-03T22:45:32;7.20;1.00
8565;DHT22;4320;51.498;6.556;2023-03-03T22:47:58;7.20;1.00
8565;DHT22;4320;51.498;6.556;2023-03-03T22:50:24;7.20;1.00
8565;DHT22;4320;51.498;6.556;2023-03-03T22:52:50;7.20;1.00
8565;DHT22;4320;51.498;6.556;2023-03-03T22:55:15;7.20;1.00
8565;DHT22;4320;51.498;6.556;2023-03-03T22:57:41;7.30;1.00
8565;DHT22;4320;51.498;6.556;2023-03-03T23:00:09;7.30;1.00
8565;DHT22;4320;51.498;6.556;2023-03-03T23:02:36;7.20;1.00
8565;DHT22;4320;51.498;6.556;2023-03-03T23:05:02;7.30;1.00
8565;DHT22;4320;51.498;6.556;2023-03-03T23:07:33;7.30;1.00
8565;DHT22;4320;51.498;6.556;2023-03-03T23:09:59;7.30;1.00
8565;DHT22;4320;51.498;6.556;2023-03-03T23:12:25;7.30;1.00
8565;DHT22;4320;51.498;6.556;2023-03-03T23:14:50;7.30;1.00
8565;DHT22;4320;51.498;6.556;2023-03-03T23:17:16;7.30;1.00
8565;DHT22;4320;51.498;6.556;2023-03-03T23:19:42;7.10;1.00
8565;DHT22;4320;51.498;6.556;2023-03-03T23:22:11;7.10;1.00
8565;DHT22;4320;51.498;6.556;2023-03-03T23:24:37;7.10;1.00
8565;DHT22;4320;51.498;6.556;2023-03-03T23:27:02;7.10;1.00
8565;DHT22;4320;51.498;6.556;2023-03-03T23:29:28;7.20;1.00
8565;DHT22;4320;51.498;6.556;2023-03-03T23:31:55;7.20;1.00
8565;DHT22;4320;51.498;6.556;2023-03-03T23:34:21;7.30;1.00
8565;DHT22;4320;51.498;6.556;2023-03-03T23:36:46;7.30;1.00
8565;DHT22;4320;51.498;6.556;2023-03-03T23:39:12;7.20;1.00
8565;DHT22;4320;51.498;6.556;2023-03-03T23:41:38;7.20;1.00